createdAt,value
2022-08-16T00:03:37.702Z,5.70
2022-08-16T00:08:41.362Z,4.97
2022-08-16T00:13:53.494Z,5.72
2022-08-16T00:18:58.255Z,5.60
2022-08-16T00:24:04.791Z,5.28
2022-08-16T00:29:07.929Z,5.03
2022-08-16T00:34:18.343Z,5.60
2022-08-16T00:39:21.728Z,4.75
2022-08-16T00:44:31.766Z,5.22
2022-08-16T00:49:39.437Z,5.22
2022-08-16T00:54:47.903Z,5.60
2022-08-16T00:59:58.851Z,5.38
2022-08-16T01:05:09.274Z,4.40
2022-08-16T01:10:16.031Z,5.47
2022-08-16T01:15:19.777Z,6.10
2022-08-16T01:20:30.508Z,5.40
2022-08-16T01:25:39.460Z,5.97
2022-08-16T01:30:50.434Z,5.93
2022-08-16T01:36:09.463Z,5.97
2022-08-16T01:41:22.239Z,5.68
2022-08-16T01:46:40.629Z,5.97
2022-08-16T01:52:28.187Z,6.10
2022-08-16T01:57:56.420Z,6.07
2022-08-16T02:03:00.444Z,5.43
2022-08-16T02:08:07.626Z,5.60
2022-08-16T02:13:32.725Z,5.90
2022-08-16T02:18:37.448Z,5.75
2022-08-16T02:23:42.614Z,5.18
2022-08-16T02:28:47.040Z,5.90
2022-08-16T02:33:50.994Z,5.65
2022-08-16T02:39:14.740Z,5.63
2022-08-16T02:44:18.573Z,6.32
2022-08-16T02:49:32.243Z,5.43
2022-08-16T02:54:55.367Z,5.05
2022-08-16T03:00:01.208Z,5.70
2022-08-16T03:05:10.181Z,5.30
2022-08-16T03:10:15.348Z,5.97
2022-08-16T03:15:23.390Z,5.03
2022-08-16T03:20:32.194Z,4.88
2022-08-16T03:25:44.198Z,5.40
2022-08-16T03:30:49.718Z,5.37
2022-08-16T03:35:59.615Z,4.88
2022-08-16T03:41:29.524Z,4.78
2022-08-16T03:46:50.693Z,5.75
2022-08-16T03:52:00.120Z,4.55
2022-08-16T03:57:06.254Z,5.87
2022-08-16T04:02:22.256Z,5.35
2022-08-16T04:07:27.249Z,5.05
2022-08-16T04:12:54.314Z,5.30
2022-08-16T04:18:01.785Z,5.57
2022-08-16T04:23:08.497Z,5.30
2022-08-16T04:28:52.044Z,6.00
2022-08-16T04:33:37.010Z,5.78
2022-08-16T04:38:40.539Z,5.85
2022-08-16T04:43:45.568Z,5.97
2022-08-16T04:48:49.358Z,5.73
2022-08-16T04:53:53.572Z,5.28
2022-08-16T04:58:59.055Z,5.80
2022-08-16T05:04:09.421Z,5.88
2022-08-16T05:09:24.184Z,5.97
2022-08-16T05:14:46.051Z,6.53
2022-08-16T05:19:59.065Z,6.47
2022-08-16T05:25:12.616Z,6.60
2022-08-16T05:30:35.755Z,6.22
2022-08-16T05:35:55.554Z,6.65
2022-08-16T05:41:19.600Z,6.27
2022-08-16T05:46:29.489Z,5.55
2022-08-16T05:51:41.652Z,5.47
2022-08-16T05:56:49.997Z,5.80
2022-08-16T06:01:53.728Z,5.25
2022-08-16T06:07:07.159Z,5.40
2022-08-16T06:12:27.399Z,5.38
2022-08-16T06:17:41.482Z,5.30
2022-08-16T06:22:57.711Z,4.78
2022-08-16T06:28:16.991Z,4.47
2022-08-16T06:33:41.254Z,5.70
2022-08-16T06:38:55.878Z,5.03
2022-08-16T06:44:21.156Z,5.15
2022-08-16T06:49:31.333Z,5.68
2022-08-16T06:54:36.461Z,5.50
2022-08-16T06:59:52.434Z,5.80
2022-08-16T07:05:15.359Z,5.68
2022-08-16T07:10:36.305Z,5.35
2022-08-16T07:15:50.773Z,4.97
2022-08-16T07:21:02.263Z,4.90
2022-08-16T07:26:13.409Z,5.63
2022-08-16T07:31:37.846Z,5.38
2022-08-16T07:36:46.024Z,5.18
2022-08-16T07:42:06.929Z,5.13
2022-08-16T07:47:11.241Z,5.43
2022-08-16T07:52:20.464Z,5.73
2022-08-16T07:57:26.398Z,5.18
2022-08-16T08:02:30.772Z,4.82
2022-08-16T08:07:34.199Z,5.43
2022-08-16T08:12:40.201Z,5.50
2022-08-16T08:17:50.698Z,5.60
2022-08-16T08:23:01.777Z,6.40
2022-08-16T08:28:16.619Z,5.97
2022-08-16T08:33:20.290Z,5.85
2022-08-16T08:38:45.332Z,5.93
2022-08-16T08:43:52.327Z,6.00
2022-08-16T08:48:59.627Z,5.90
2022-08-16T08:54:10.880Z,5.82
2022-08-16T08:59:20.050Z,5.22
2022-08-16T09:04:25.835Z,5.47
2022-08-16T09:09:33.312Z,5.50
2022-08-16T09:14:49.555Z,5.18
2022-08-16T09:19:59.422Z,5.63
2022-08-16T09:25:11.348Z,5.47
2022-08-16T09:30:32.634Z,5.68
2022-08-16T09:35:38.763Z,5.67
2022-08-16T09:40:44.177Z,5.22
2022-08-16T09:45:48.076Z,5.53
2022-08-16T09:50:52.500Z,5.60
2022-08-16T09:55:59.421Z,5.93
2022-08-16T10:01:02.438Z,5.63
2022-08-16T10:06:06.267Z,6.60
2022-08-16T10:11:32.280Z,6.22
2022-08-16T10:17:00.079Z,5.95
2022-08-16T10:22:05.803Z,6.22
2022-08-16T10:27:25.456Z,6.00
2022-08-16T10:32:32.138Z,5.97
2022-08-16T10:37:36.520Z,6.75
2022-08-16T10:42:39.547Z,6.00
2022-08-16T10:47:44.330Z,6.30
2022-08-16T10:52:49.832Z,6.20
2022-08-16T10:57:56.424Z,6.07
2022-08-16T11:03:02.788Z,6.30
2022-08-16T11:08:08.657Z,6.25
2022-08-16T11:19:03.546Z,7.10
2022-08-16T11:24:01.566Z,6.90
2022-08-16T11:29:15.108Z,7.22
2022-08-16T11:34:19.810Z,7.35
2022-08-16T11:39:23.950Z,6.47
2022-08-16T11:44:52.957Z,6.60
2022-08-16T11:49:49.659Z,7.18
2022-08-16T11:54:53.745Z,7.13
2022-08-16T12:00:00.879Z,6.90
2022-08-16T12:05:16.417Z,7.45
2022-08-16T12:10:20.390Z,6.20
2022-08-16T12:15:23.337Z,6.93
2022-08-16T12:20:29.826Z,7.10
2022-08-16T12:25:35.570Z,7.72
2022-08-16T12:30:43.899Z,7.78
2022-08-16T12:35:49.767Z,5.93
2022-08-16T12:40:57.057Z,4.03
2022-08-16T12:46:02.069Z,4.60
2022-08-16T12:51:13.456Z,4.18
2022-08-16T12:56:26.388Z,4.45
2022-08-16T13:01:33.615Z,4.80
2022-08-16T13:06:38.295Z,4.72
2022-08-16T13:11:48.387Z,4.47
2022-08-16T13:16:58.550Z,5.35
2022-08-16T13:22:01.605Z,5.05
2022-08-16T13:27:05.336Z,5.13
2022-08-16T13:32:09.971Z,5.82
2022-08-16T13:37:33.328Z,6.07
2022-08-16T13:42:41.206Z,6.45
2022-08-16T13:47:46.832Z,6.28
2022-08-16T13:52:50.689Z,6.43
2022-08-16T13:58:37.512Z,5.82
2022-08-16T14:03:18.489Z,6.07
2022-08-16T14:08:26.600Z,6.68
2022-08-16T14:13:30.470Z,6.93
2022-08-16T14:18:37.043Z,6.57
2022-08-16T14:23:39.839Z,6.63
2022-08-16T14:28:44.579Z,6.00
2022-08-16T14:33:47.899Z,6.00
2022-08-16T14:38:50.997Z,6.32
2022-08-16T14:43:54.104Z,6.77
2022-08-16T14:48:57.030Z,6.47
2022-08-16T14:54:02.562Z,6.32
2022-08-16T14:59:05.559Z,6.45
2022-08-16T15:04:12.580Z,6.28
2022-08-16T15:09:35.574Z,6.90
2022-08-16T15:14:52.453Z,6.07
2022-08-16T15:19:55.849Z,6.72
2022-08-16T15:25:00.750Z,6.57
2022-08-16T15:30:44.797Z,6.90
2022-08-16T15:35:29.844Z,6.70
2022-08-16T15:40:35.403Z,6.57
2022-08-16T15:45:57.304Z,6.93
2022-08-16T15:51:05.419Z,6.82
2022-08-16T15:56:11.048Z,7.10
2022-08-16T16:01:20.036Z,6.90
2022-08-16T16:06:27.998Z,7.07
2022-08-16T16:11:31.662Z,7.43
2022-08-16T16:16:34.712Z,6.88
2022-08-16T16:21:38.219Z,7.30
2022-08-16T16:26:41.720Z,6.20
2022-08-16T16:31:59.738Z,6.13
2022-08-16T16:37:03.486Z,6.32
2022-08-16T16:42:06.518Z,6.45
2022-08-16T16:47:13.829Z,6.03
2022-08-16T16:52:44.372Z,6.53
2022-08-16T16:57:58.379Z,6.53
2022-08-16T17:03:01.397Z,6.40
2022-08-16T17:08:06.225Z,6.35
2022-08-16T17:13:09.202Z,6.68
2022-08-16T17:19:14.292Z,7.23
2022-08-16T17:23:58.319Z,7.10
2022-08-16T17:29:02.590Z,6.97
2022-08-16T17:34:30.491Z,7.03
2022-08-16T17:39:59.284Z,6.72
2022-08-16T17:45:01.010Z,7.00
2022-08-16T17:50:06.650Z,7.30
2022-08-16T17:55:14.652Z,6.47
2022-08-16T18:00:20.527Z,7.20
2022-08-16T18:05:23.881Z,7.32
2022-08-16T18:10:32.849Z,7.30
2022-08-16T18:15:38.485Z,6.97
2022-08-16T18:20:59.777Z,7.60
2022-08-16T18:26:05.021Z,7.40
2022-08-16T18:31:08.424Z,8.05
2022-08-16T18:36:20.407Z,7.60
2022-08-16T18:41:27.700Z,7.78
2022-08-16T18:46:30.460Z,7.63
2022-08-16T18:51:33.805Z,8.18
2022-08-16T18:56:54.330Z,7.80
2022-08-16T19:02:04.331Z,8.10
2022-08-16T19:07:08.663Z,8.10
2022-08-16T19:12:11.655Z,8.05
2022-08-16T19:17:18.970Z,8.57
2022-08-16T19:22:59.403Z,9.38
2022-08-16T19:27:54.670Z,8.73
2022-08-16T19:32:57.532Z,8.43
2022-08-16T19:38:00.583Z,9.27
2022-08-16T19:43:03.534Z,8.65
2022-08-16T19:48:09.781Z,9.00
2022-08-16T19:53:19.196Z,10.00
2022-08-16T19:58:23.181Z,9.48
2022-08-16T20:03:27.336Z,9.85
2022-08-16T20:08:30.680Z,9.45
2022-08-16T20:13:34.394Z,8.93
2022-08-16T20:18:37.231Z,9.43
2022-08-16T20:23:40.031Z,10.18
2022-08-16T20:28:54.301Z,9.40
2022-08-16T20:33:57.664Z,10.23
2022-08-16T20:39:03.602Z,9.20
2022-08-16T20:44:09.953Z,9.87
2022-08-16T20:49:13.150Z,10.45
2022-08-16T20:54:16.225Z,10.23
2022-08-16T20:59:19.139Z,9.43
2022-08-16T21:04:25.773Z,9.90
2022-08-16T21:09:32.886Z,9.80
2022-08-16T21:14:36.081Z,10.07
2022-08-16T21:19:39.379Z,9.77
2022-08-16T21:24:43.282Z,9.55
2022-08-16T21:29:49.205Z,10.57
2022-08-16T21:34:52.292Z,10.47
2022-08-16T21:39:55.455Z,10.63
2022-08-16T21:44:58.579Z,10.55
2022-08-16T21:50:01.611Z,10.13
2022-08-16T21:55:05.821Z,9.65
2022-08-16T22:00:14.531Z,10.53
2022-08-16T22:05:17.324Z,9.57
2022-08-16T22:11:07.219Z,10.70
2022-08-16T22:15:45.551Z,9.80
2022-08-16T22:20:49.664Z,9.73
2022-08-16T22:25:54.343Z,10.00
2022-08-16T22:30:57.389Z,9.63
2022-08-16T22:36:02.695Z,9.15
2022-08-16T22:41:06.154Z,9.85
2022-08-16T22:46:08.958Z,9.90
2022-08-16T22:51:11.739Z,9.87
2022-08-16T22:56:15.844Z,9.77
2022-08-16T23:01:21.145Z,9.48
2022-08-16T23:06:24.842Z,9.55
2022-08-16T23:11:27.651Z,10.27
2022-08-16T23:16:34.460Z,9.77
2022-08-16T23:21:39.953Z,11.15
2022-08-16T23:26:48.510Z,10.43
2022-08-16T23:31:53.573Z,10.95
2022-08-16T23:36:57.120Z,10.23
2022-08-16T23:41:59.992Z,11.13
2022-08-16T23:47:02.709Z,10.23
2022-08-16T23:52:10.654Z,10.35
2022-08-16T23:57:13.464Z,9.82
